Terminal Aerodrome Forecast
Issued by NWS Duluth, MN

Home | Current Version | Previous Version | Text Only | Print | Product List | Glossary On
Versions: 1 2 3 4 5 6 7 8 9 10 11 12 13 14 15
000
FTUS43 KDLH 231131
TAFDLH
TAF
KDLH 231131Z 2312/2412 28007KT P6SM SKC
     FM231500 24005KT P6SM FEW250
     FM240700 31004KT P6SM BKN070=

USA.gov is the U.S. government's official web portal to all federal, state and local government web resources and services.